Accueil
METAR-TAF:

METAR-TAF

Aéroports :

Gibraltar, Gibraltar

Aéroport international de Gibraltar

latitude: 36-09N, longitude: 005-21W, altitude: 5 m

Observation

Le bulletin a été fait il y a 56 minutes, à 07:50 UTC
Vent 9 kt de est
Température 24°C
Humidité 83%
Pression 1016 hPa
Visibilité 10 km ou plus
Quelques nuages à une hauteur de 1000 ft
Nuages épars à une hauteur de 1500 ft

METAR: LXGB 240750Z 08009KT 9999 FEW010 SCT015 24/21 Q1016 BECMG FEW015

Heure: 10:46 (08:46 UTC)

Prévision

Le bulletin a été fait il y a 50 minutes, à 07:56 UTC
Prévision valable du 24 à 09 UTC au 24 à 18 UTC
Vent 8 kt de est
Visibilité 10 km ou plus
Quelques nuages à une hauteur de 1000 ft
Nuages épars à une hauteur de 1500 ft
Evoluant progressivement
du 24 à 09 UTC au 24 à 12 UTC
Quelques nuages à une hauteur de 1200 ft

TAF: LXGB 240756Z 2409/2418 09008KT 9999 FEW010 SCT015 BECMG 2409/2412 FEW012

Observations et prévisions météorologiques de plus de 4000 aéroports (messages METAR et TAF).

Les stations disponibles sont représentées par des disques jaunes et rouges sur la carte.

Passer la souris dessus pour voir le nom de la station.

Cliquer dessus pour voir les observations et prévisions météorologiques.

Pour changer de carte: cliquez sur les boutons verts avec une croix noire pour zoomer, sur le bouton vert avec un tiret pour effectuer un zoom arrière, ou sur les flèches vertes pour les cartes adjacentes.


METAR-TAF: